createdAt,value
2023-11-15T00:02:27.601Z,26.90
2023-11-15T00:04:56.426Z,26.90
2023-11-15T00:07:25.188Z,26.90
2023-11-15T00:09:53.776Z,26.80
2023-11-15T00:12:22.311Z,26.80
2023-11-15T00:14:50.824Z,26.80
2023-11-15T00:17:19.764Z,26.80
2023-11-15T00:19:48.292Z,26.70
2023-11-15T00:22:16.992Z,26.80
2023-11-15T00:24:46.377Z,26.80
2023-11-15T00:27:14.736Z,26.70
2023-11-15T00:29:43.175Z,26.70
2023-11-15T00:32:11.832Z,26.80
2023-11-15T00:34:40.265Z,26.80
2023-11-15T00:37:08.996Z,26.80
2023-11-15T00:39:37.401Z,26.80
2023-11-15T00:42:06.068Z,26.80
2023-11-15T00:44:34.714Z,26.70
2023-11-15T00:47:03.216Z,26.70
2023-11-15T00:49:31.942Z,26.70
2023-11-15T00:52:00.424Z,26.70
2023-11-15T00:54:28.735Z,26.70
2023-11-15T00:56:57.280Z,26.70
2023-11-15T00:59:25.772Z,26.70
2023-11-15T01:01:55.557Z,26.70
2023-11-15T01:04:24.230Z,26.70
2023-11-15T01:06:53.057Z,26.70
2023-11-15T01:09:21.414Z,26.70
2023-11-15T01:11:50.016Z,26.70
2023-11-15T01:14:18.673Z,26.70
2023-11-15T01:16:47.071Z,26.70
2023-11-15T01:19:16.487Z,26.70
2023-11-15T01:21:44.974Z,26.70
2023-11-15T01:24:13.462Z,26.70
2023-11-15T01:26:42.208Z,26.70
2023-11-15T01:29:10.771Z,26.70
2023-11-15T01:31:39.384Z,26.70
2023-11-15T01:34:07.701Z,26.70
2023-11-15T01:36:36.264Z,26.60
2023-11-15T01:39:04.779Z,26.60
2023-11-15T01:41:33.301Z,26.60
2023-11-15T01:44:01.776Z,26.50
2023-11-15T01:46:30.235Z,26.50
2023-11-15T01:48:58.737Z,26.40
2023-11-15T01:51:27.404Z,26.40
2023-11-15T01:53:56.275Z,26.40
2023-11-15T01:56:24.778Z,26.40
2023-11-15T01:58:53.446Z,26.40
2023-11-15T02:01:23.527Z,26.40
2023-11-15T02:03:52.377Z,26.30
2023-11-15T02:06:20.996Z,26.30
2023-11-15T02:08:49.577Z,26.30
2023-11-15T02:11:18.152Z,26.30
2023-11-15T02:13:46.641Z,26.30
2023-11-15T02:16:15.181Z,26.30
2023-11-15T02:18:43.645Z,26.30
2023-11-15T02:21:12.668Z,26.30
2023-11-15T02:23:44.454Z,26.30
2023-11-15T02:26:13.741Z,26.30
2023-11-15T02:28:42.274Z,26.30
2023-11-15T02:31:10.765Z,26.30
2023-11-15T02:33:39.932Z,26.30
2023-11-15T02:36:09.199Z,26.30
2023-11-15T02:38:37.707Z,26.30
2023-11-15T02:41:06.429Z,26.20
2023-11-15T02:43:34.908Z,26.20
2023-11-15T02:46:04.818Z,26.20
2023-11-15T02:48:33.550Z,26.20
2023-11-15T02:51:02.049Z,26.20
2023-11-15T02:53:30.592Z,26.20
2023-11-15T02:55:59.202Z,26.10
2023-11-15T02:58:27.616Z,26.10
2023-11-15T03:00:56.140Z,26.10
2023-11-15T03:03:24.872Z,26.10
2023-11-15T03:05:56.637Z,26.10
2023-11-15T03:08:25.174Z,26.10
2023-11-15T03:10:53.882Z,26.10
2023-11-15T03:13:22.519Z,26.00
2023-11-15T03:15:51.851Z,26.00
2023-11-15T03:18:20.784Z,26.00
2023-11-15T03:20:49.816Z,26.00
2023-11-15T03:23:18.297Z,26.00
2023-11-15T03:25:46.733Z,26.00
2023-11-15T03:28:15.271Z,25.90
2023-11-15T03:30:43.484Z,26.00
2023-11-15T03:33:12.000Z,25.90
2023-11-15T03:35:40.625Z,26.00
2023-11-15T03:38:09.173Z,26.00
2023-11-15T03:40:37.528Z,25.90
2023-11-15T03:43:06.046Z,25.90
2023-11-15T03:45:34.448Z,25.90
2023-11-15T03:48:06.196Z,25.90
2023-11-15T03:50:34.692Z,25.90
2023-11-15T03:53:03.035Z,25.90
2023-11-15T03:55:32.234Z,25.80
2023-11-15T03:58:00.568Z,25.80
2023-11-15T04:00:29.456Z,25.80
2023-11-15T04:02:57.924Z,25.80
2023-11-15T04:05:26.613Z,25.80
2023-11-15T04:07:55.094Z,25.80
2023-11-15T04:10:23.384Z,25.80
2023-11-15T04:12:51.921Z,25.70
2023-11-15T04:15:20.370Z,25.70
2023-11-15T04:17:48.991Z,25.70
2023-11-15T04:20:17.534Z,25.70
2023-11-15T04:22:46.225Z,25.60
2023-11-15T04:25:15.051Z,25.60
2023-11-15T04:27:43.549Z,25.60
2023-11-15T04:30:12.420Z,25.60
2023-11-15T04:32:41.065Z,25.60
2023-11-15T04:35:10.033Z,25.60
2023-11-15T04:37:38.576Z,25.60
2023-11-15T04:40:08.185Z,25.60
2023-11-15T04:42:36.856Z,25.60
2023-11-15T04:45:06.332Z,25.60
2023-11-15T04:47:34.964Z,25.60
2023-11-15T04:50:04.113Z,25.50
2023-11-15T04:52:32.370Z,25.60
2023-11-15T04:55:01.819Z,25.60
2023-11-15T04:57:30.202Z,25.50
2023-11-15T04:59:58.775Z,25.60
2023-11-15T05:02:27.441Z,25.50
2023-11-15T05:04:56.059Z,25.50
2023-11-15T05:07:24.810Z,25.60
2023-11-15T05:09:53.248Z,25.60
2023-11-15T05:12:22.295Z,25.60
2023-11-15T05:14:51.206Z,25.50
2023-11-15T05:17:19.711Z,25.60
2023-11-15T05:19:48.141Z,25.50
2023-11-15T05:22:16.484Z,25.50
2023-11-15T05:24:44.986Z,25.50
2023-11-15T05:27:13.386Z,25.50
2023-11-15T05:29:41.980Z,25.50
2023-11-15T05:32:10.263Z,25.50
2023-11-15T05:34:38.653Z,25.50
2023-11-15T05:37:07.159Z,25.50
2023-11-15T05:39:35.614Z,25.50
2023-11-15T05:42:04.133Z,25.50
2023-11-15T05:44:34.526Z,25.50
2023-11-15T05:47:03.410Z,25.50
2023-11-15T05:49:31.800Z,25.50
2023-11-15T05:52:00.743Z,25.50
2023-11-15T05:54:29.268Z,25.50
2023-11-15T05:56:57.670Z,25.40
2023-11-15T05:59:26.625Z,25.40
2023-11-15T06:01:54.882Z,25.40
2023-11-15T06:04:23.544Z,25.40
2023-11-15T06:06:51.887Z,25.40
2023-11-15T06:09:20.236Z,25.50
2023-11-15T06:11:49.843Z,25.40
2023-11-15T06:14:18.906Z,25.40
2023-11-15T06:16:47.494Z,25.40
2023-11-15T06:19:15.926Z,25.50
2023-11-15T06:21:45.319Z,25.40
2023-11-15T06:24:13.774Z,25.50
2023-11-15T06:26:42.293Z,25.50
2023-11-15T06:29:10.770Z,25.50
2023-11-15T06:31:39.389Z,25.50
2023-11-15T06:34:07.941Z,25.50
2023-11-15T06:36:36.406Z,25.50
2023-11-15T06:39:05.178Z,25.50
2023-11-15T06:41:37.420Z,25.50
2023-11-15T06:44:07.533Z,25.50
2023-11-15T06:46:36.989Z,25.50
2023-11-15T06:49:06.884Z,25.50
2023-11-15T06:51:35.414Z,25.50
2023-11-15T06:54:03.823Z,25.50
2023-11-15T06:56:32.429Z,25.50
2023-11-15T06:59:00.876Z,25.50
2023-11-15T07:01:29.753Z,25.40
2023-11-15T07:03:58.754Z,25.50
2023-11-15T07:06:27.335Z,25.50
2023-11-15T07:08:56.291Z,25.50
2023-11-15T07:11:24.956Z,25.50
2023-11-15T07:13:53.423Z,25.50
2023-11-15T07:16:21.914Z,25.50
2023-11-15T07:18:50.763Z,25.50
2023-11-15T07:21:19.218Z,25.60
2023-11-15T07:23:47.649Z,25.60
2023-11-15T07:26:16.037Z,25.60
2023-11-15T07:28:44.468Z,25.60
2023-11-15T07:31:16.227Z,25.60
2023-11-15T07:33:44.926Z,25.60
2023-11-15T07:36:13.572Z,25.70
2023-11-15T07:38:42.157Z,25.70
2023-11-15T07:41:10.776Z,25.70
2023-11-15T07:43:39.369Z,25.70
2023-11-15T07:46:07.710Z,25.70
2023-11-15T07:48:36.241Z,25.70
2023-11-15T07:51:06.303Z,25.70
2023-11-15T07:53:34.909Z,25.80
2023-11-15T07:56:03.172Z,25.70
2023-11-15T07:58:31.735Z,25.80
2023-11-15T08:01:00.236Z,25.80
2023-11-15T08:03:29.175Z,25.80
2023-11-15T08:05:57.884Z,25.90
2023-11-15T08:08:26.375Z,25.90
2023-11-15T08:10:55.066Z,26.00
2023-11-15T08:13:23.461Z,26.00
2023-11-15T08:15:52.118Z,26.00
2023-11-15T08:18:20.716Z,26.10
2023-11-15T08:20:49.429Z,26.20
2023-11-15T08:23:18.120Z,26.20
2023-11-15T08:25:47.508Z,26.20
2023-11-15T08:28:16.037Z,26.20
2023-11-15T08:30:44.741Z,26.30
2023-11-15T08:33:14.553Z,26.40
2023-11-15T08:35:43.195Z,26.40
2023-11-15T08:38:12.808Z,26.50
2023-11-15T08:40:41.679Z,26.50
2023-11-15T08:43:10.128Z,26.60
2023-11-15T08:45:38.873Z,26.60
2023-11-15T08:48:07.588Z,26.70
2023-11-15T08:50:36.694Z,26.70
2023-11-15T08:53:05.069Z,26.80
2023-11-15T08:58:05.996Z,26.90
2023-11-15T09:00:34.767Z,26.90
2023-11-15T09:03:03.173Z,26.90
2023-11-15T09:05:32.046Z,27.00
2023-11-15T09:08:00.452Z,27.10
2023-11-15T09:10:28.966Z,27.20
2023-11-15T09:12:57.416Z,27.30
2023-11-15T09:15:25.999Z,27.40
2023-11-15T09:17:54.444Z,27.50
2023-11-15T09:20:23.861Z,27.50
2023-11-15T09:22:52.211Z,27.50
2023-11-15T09:25:20.911Z,27.50
2023-11-15T09:27:50.530Z,27.50
2023-11-15T09:30:19.018Z,27.60
2023-11-15T09:32:52.040Z,27.60
2023-11-15T09:35:24.936Z,27.70
2023-11-15T09:37:54.238Z,27.70
2023-11-15T09:40:23.707Z,27.80
2023-11-15T09:42:57.003Z,27.80
2023-11-15T09:45:25.732Z,27.90
2023-11-15T09:47:57.386Z,28.00
2023-11-15T09:50:27.715Z,28.00
2023-11-15T09:52:56.946Z,28.00
2023-11-15T09:55:26.601Z,28.00
2023-11-15T09:57:55.813Z,28.20
2023-11-15T10:00:25.214Z,28.20
2023-11-15T10:02:54.868Z,28.20
2023-11-15T10:05:25.703Z,28.20
2023-11-15T10:08:14.977Z,28.30
2023-11-15T10:10:49.206Z,28.40
2023-11-15T10:13:19.269Z,28.40
2023-11-15T10:15:48.400Z,28.40
2023-11-15T10:18:31.496Z,28.40
2023-11-15T10:21:19.778Z,28.40
2023-11-15T10:23:48.763Z,28.40
2023-11-15T10:26:17.193Z,28.50
2023-11-15T10:28:45.984Z,28.50
2023-11-15T10:31:15.615Z,28.60
2023-11-15T10:33:50.244Z,28.70
2023-11-15T10:36:20.083Z,28.70
2023-11-15T10:38:57.743Z,28.70
2023-11-15T10:41:27.261Z,28.70
2023-11-15T10:43:56.805Z,28.60
2023-11-15T10:46:29.870Z,28.70
2023-11-15T10:49:00.018Z,28.80
2023-11-15T10:51:47.795Z,28.80
2023-11-15T10:54:17.061Z,28.80
2023-11-15T10:56:48.262Z,28.90
2023-11-15T10:59:18.108Z,28.80
2023-11-15T11:01:47.877Z,28.80
2023-11-15T11:04:17.069Z,28.80
2023-11-15T11:06:56.162Z,28.80
2023-11-15T11:09:33.887Z,28.90
2023-11-15T11:12:09.184Z,29.10
2023-11-15T11:14:37.696Z,29.10
2023-11-15T11:17:32.691Z,29.20
2023-11-15T11:20:05.068Z,29.20
2023-11-15T11:22:33.610Z,29.10
2023-11-15T11:25:08.414Z,29.00
2023-11-15T11:27:37.239Z,28.90
2023-11-15T11:30:08.565Z,28.90
2023-11-15T11:32:37.513Z,28.90
2023-11-15T11:35:06.124Z,28.80
2023-11-15T11:37:44.942Z,28.80
2023-11-15T11:40:14.381Z,28.80
2023-11-15T11:42:43.927Z,28.80
2023-11-15T11:45:13.852Z,28.90
2023-11-15T11:47:46.868Z,28.90
2023-11-15T11:50:25.630Z,29.00
2023-11-15T11:53:01.221Z,29.10
2023-11-15T11:55:34.029Z,29.10
2023-11-15T11:58:05.646Z,29.20
2023-11-15T12:00:34.313Z,29.20
2023-11-15T12:03:06.047Z,29.20
2023-11-15T12:05:34.892Z,29.20
2023-11-15T12:08:04.624Z,29.30
2023-11-15T12:10:33.321Z,29.40
2023-11-15T12:13:08.021Z,29.50
2023-11-15T12:15:40.498Z,29.60
2023-11-15T12:18:09.193Z,29.50
2023-11-15T12:20:39.208Z,29.60
2023-11-15T12:23:09.006Z,29.60
2023-11-15T12:25:56.016Z,29.70
2023-11-15T12:28:28.648Z,29.80
2023-11-15T12:30:58.511Z,29.80
2023-11-15T12:33:28.524Z,29.70
2023-11-15T12:35:57.891Z,29.70
2023-11-15T12:38:26.386Z,29.60
2023-11-15T12:41:06.735Z,29.60
2023-11-15T12:43:36.375Z,29.60
2023-11-15T12:46:30.207Z,29.50
2023-11-15T12:48:58.707Z,29.50
2023-11-15T12:51:27.317Z,29.40
2023-11-15T12:53:55.888Z,29.40
2023-11-15T12:56:24.346Z,29.20
2023-11-15T12:58:52.899Z,29.10
2023-11-15T13:01:21.580Z,29.10
2023-11-15T13:03:57.996Z,29.20
2023-11-15T13:06:29.278Z,29.20
2023-11-15T13:08:59.335Z,29.30
2023-11-15T13:11:27.879Z,29.30
2023-11-15T13:13:56.628Z,29.20
2023-11-15T13:16:25.705Z,29.10
2023-11-15T13:18:54.166Z,29.20
2023-11-15T13:21:23.269Z,29.20
2023-11-15T13:23:52.806Z,29.30
2023-11-15T13:26:22.311Z,29.20
2023-11-15T13:28:51.145Z,29.40
2023-11-15T13:31:24.229Z,29.50
2023-11-15T13:33:55.032Z,29.60
2023-11-15T13:36:23.847Z,29.70
2023-11-15T13:38:52.247Z,29.70
2023-11-15T13:41:20.874Z,29.80
2023-11-15T13:43:49.420Z,29.70
2023-11-15T13:46:17.868Z,29.70
2023-11-15T13:48:46.567Z,29.60
2023-11-15T13:51:15.182Z,29.70
2023-11-15T13:53:44.650Z,29.80
2023-11-15T13:56:13.312Z,29.90
2023-11-15T13:58:42.080Z,29.90
2023-11-15T14:01:10.409Z,29.90
2023-11-15T14:03:39.150Z,29.80
2023-11-15T14:06:08.712Z,29.80
2023-11-15T14:08:46.965Z,29.70
2023-11-15T14:11:25.738Z,29.60
2023-11-15T14:13:55.648Z,29.60
2023-11-15T14:16:24.269Z,29.50
2023-11-15T14:18:53.077Z,29.50
2023-11-15T14:21:22.718Z,29.60
2023-11-15T14:23:51.152Z,29.60
2023-11-15T14:26:19.807Z,29.60
2023-11-15T14:28:48.065Z,29.50
2023-11-15T14:31:16.648Z,29.50
2023-11-15T14:33:45.384Z,29.60
2023-11-15T14:36:13.996Z,29.80
2023-11-15T14:38:42.411Z,30.00
2023-11-15T14:41:11.184Z,30.20
2023-11-15T14:43:41.884Z,30.20
2023-11-15T14:46:10.652Z,30.10
2023-11-15T14:48:39.266Z,30.10
2023-11-15T14:51:07.961Z,30.00
2023-11-15T14:53:36.637Z,29.90
2023-11-15T14:56:06.946Z,29.80
2023-11-15T14:58:37.025Z,29.70
2023-11-15T15:01:05.841Z,29.70
2023-11-15T15:03:34.603Z,29.60
2023-11-15T15:06:03.643Z,29.60
2023-11-15T15:08:33.018Z,29.70
2023-11-15T15:11:02.153Z,29.70
2023-11-15T15:13:30.694Z,29.80
2023-11-15T15:15:59.441Z,29.90
2023-11-15T15:18:34.215Z,29.90
2023-11-15T15:21:03.722Z,30.10
2023-11-15T15:23:32.235Z,30.00
2023-11-15T15:26:01.224Z,29.90
2023-11-15T15:28:29.550Z,29.90
2023-11-15T15:30:57.932Z,29.70
2023-11-15T15:33:26.709Z,29.70
2023-11-15T15:35:55.391Z,29.90
2023-11-15T15:38:23.844Z,30.00
2023-11-15T15:40:52.243Z,30.10
2023-11-15T15:43:20.877Z,30.20
2023-11-15T15:45:49.540Z,30.50
2023-11-15T15:48:18.097Z,30.80
2023-11-15T15:50:46.892Z,31.00
2023-11-15T15:53:15.311Z,31.10
2023-11-15T15:55:44.263Z,31.20
2023-11-15T15:58:12.919Z,31.30
2023-11-15T16:00:41.502Z,31.40
2023-11-15T16:03:10.241Z,31.50
2023-11-15T16:05:38.764Z,31.60
2023-11-15T16:08:07.355Z,31.60
2023-11-15T16:10:35.719Z,31.80
2023-11-15T16:13:04.244Z,31.90
2023-11-15T16:15:32.818Z,32.00
2023-11-15T16:18:01.320Z,32.00
2023-11-15T16:20:29.855Z,32.00
2023-11-15T16:22:58.606Z,31.90
2023-11-15T16:25:27.437Z,32.10
2023-11-15T16:27:55.733Z,32.00
2023-11-15T16:30:24.363Z,32.10
2023-11-15T16:32:53.041Z,32.20
2023-11-15T16:35:21.643Z,32.00
2023-11-15T16:37:49.975Z,32.10
2023-11-15T16:40:18.322Z,32.00
2023-11-15T16:42:46.863Z,31.90
2023-11-15T16:45:15.512Z,32.00
2023-11-15T16:47:44.046Z,31.90
2023-11-15T16:50:12.489Z,31.90
2023-11-15T16:52:41.160Z,31.80
2023-11-15T16:55:09.835Z,31.70
2023-11-15T16:57:38.333Z,31.60
2023-11-15T17:00:07.632Z,31.60
2023-11-15T17:02:35.953Z,31.30
2023-11-15T17:05:04.602Z,31.20
2023-11-15T17:07:32.985Z,31.10
2023-11-15T17:10:01.362Z,31.00
2023-11-15T17:12:29.834Z,30.80
2023-11-15T17:14:58.347Z,30.70
2023-11-15T17:17:26.750Z,30.70
2023-11-15T17:19:57.841Z,30.50
2023-11-15T17:22:26.421Z,30.40
2023-11-15T17:24:55.010Z,30.30
2023-11-15T17:27:23.313Z,30.30
2023-11-15T17:29:51.857Z,30.20
2023-11-15T17:32:20.390Z,30.20
2023-11-15T17:34:48.753Z,30.00
2023-11-15T17:37:17.093Z,30.00
2023-11-15T17:39:45.556Z,30.00
2023-11-15T17:42:13.932Z,29.90
2023-11-15T17:44:42.403Z,29.80
2023-11-15T17:47:10.913Z,29.80
2023-11-15T17:49:39.371Z,29.70
2023-11-15T17:52:07.842Z,29.60
2023-11-15T17:54:37.000Z,29.60
2023-11-15T17:57:05.730Z,29.60
2023-11-15T17:59:34.124Z,29.50
2023-11-15T18:02:02.588Z,29.50
2023-11-15T18:04:31.017Z,29.50
2023-11-15T18:06:59.426Z,29.40
2023-11-15T18:09:28.066Z,29.30
2023-11-15T18:11:56.461Z,29.30
2023-11-15T18:14:24.938Z,29.20
2023-11-15T18:16:53.425Z,29.10
2023-11-15T18:19:21.871Z,29.00
2023-11-15T18:21:50.540Z,28.90
2023-11-15T18:24:19.106Z,28.90
2023-11-15T18:26:47.451Z,28.80
2023-11-15T18:29:15.672Z,28.80
2023-11-15T18:31:44.200Z,28.80
2023-11-15T18:34:12.914Z,28.70
2023-11-15T18:36:44.330Z,28.70
2023-11-15T18:39:13.005Z,28.60
2023-11-15T18:41:41.960Z,28.60
2023-11-15T18:44:10.473Z,28.50
2023-11-15T18:46:38.949Z,28.50
2023-11-15T18:49:07.920Z,28.50
2023-11-15T18:51:36.641Z,28.40
2023-11-15T18:54:05.519Z,28.40
2023-11-15T18:56:33.940Z,28.40
2023-11-15T18:59:02.429Z,28.40
2023-11-15T19:01:31.123Z,28.40
2023-11-15T19:04:00.045Z,28.30
2023-11-15T19:06:28.641Z,28.30
2023-11-15T19:08:57.643Z,28.20
2023-11-15T19:11:26.217Z,28.20
2023-11-15T19:13:54.682Z,28.20
2023-11-15T19:16:23.480Z,28.20
2023-11-15T19:18:52.316Z,28.20
2023-11-15T19:21:21.026Z,28.20
2023-11-15T19:23:49.615Z,28.10
2023-11-15T19:26:18.184Z,28.10
2023-11-15T19:28:46.740Z,28.10
2023-11-15T19:31:15.318Z,28.10
2023-11-15T19:33:43.994Z,28.10
2023-11-15T19:36:12.580Z,28.10
2023-11-15T19:38:41.108Z,28.10
2023-11-15T19:41:10.202Z,28.10
2023-11-15T19:43:38.769Z,28.00
2023-11-15T19:46:07.343Z,28.00
2023-11-15T19:48:35.911Z,28.10
2023-11-15T19:51:04.828Z,28.00
2023-11-15T19:53:33.389Z,28.00
2023-11-15T19:56:01.853Z,28.00
2023-11-15T19:58:30.762Z,28.00
2023-11-15T20:00:59.626Z,28.00
2023-11-15T20:03:28.508Z,28.00
2023-11-15T20:05:57.096Z,27.90
2023-11-15T20:08:25.932Z,27.90
2023-11-15T20:10:54.831Z,27.90
2023-11-15T20:13:25.318Z,27.90
2023-11-15T20:15:53.791Z,27.90
2023-11-15T20:18:22.521Z,27.90
2023-11-15T20:20:51.171Z,27.90
2023-11-15T20:23:19.911Z,27.90
2023-11-15T20:25:49.408Z,27.90
2023-11-15T20:28:18.193Z,27.80
2023-11-15T20:30:46.510Z,27.80
2023-11-15T20:33:15.161Z,27.80
2023-11-15T20:35:43.787Z,27.80
2023-11-15T20:38:12.226Z,27.80
2023-11-15T20:40:40.726Z,27.80
2023-11-15T20:43:09.252Z,27.80
2023-11-15T20:45:38.309Z,27.80
2023-11-15T20:48:17.327Z,27.70
2023-11-15T20:50:46.931Z,27.70
2023-11-15T20:53:15.358Z,27.70
2023-11-15T20:55:43.801Z,27.70
2023-11-15T20:58:12.585Z,27.70
2023-11-15T21:03:19.063Z,27.60
2023-11-15T21:05:47.732Z,27.70
2023-11-15T21:08:16.187Z,27.60
2023-11-15T21:10:44.991Z,27.70
2023-11-15T21:13:14.677Z,27.60
2023-11-15T21:15:44.984Z,27.60
2023-11-15T21:21:32.401Z,27.60
2023-11-15T21:24:02.237Z,27.60
2023-11-15T21:26:32.586Z,27.60
2023-11-15T21:29:01.075Z,27.60
2023-11-15T21:31:33.264Z,27.60
2023-11-15T21:34:05.936Z,27.60
2023-11-15T21:36:35.456Z,27.60
2023-11-15T21:39:07.545Z,27.50
2023-11-15T21:41:40.344Z,27.50
2023-11-15T21:44:12.497Z,27.50
2023-11-15T21:46:42.042Z,27.50
2023-11-15T21:49:14.035Z,27.50
2023-11-15T21:51:43.749Z,27.50
2023-11-15T21:54:12.334Z,27.50
2023-11-15T21:56:43.725Z,27.50
2023-11-15T21:59:13.496Z,27.50
2023-11-15T22:01:42.001Z,27.50
2023-11-15T22:10:58.686Z,27.50
2023-11-15T22:13:27.289Z,27.50
2023-11-15T22:15:55.808Z,27.50
2023-11-15T22:18:24.589Z,27.50
2023-11-15T22:20:53.221Z,27.50
2023-11-15T22:23:21.595Z,27.40
2023-11-15T22:25:50.179Z,27.40
2023-11-15T22:28:18.890Z,27.40
2023-11-15T22:30:48.307Z,27.40
2023-11-15T22:33:17.000Z,27.40
2023-11-15T22:35:46.814Z,27.40
2023-11-15T22:38:15.903Z,27.30
2023-11-15T22:40:44.307Z,27.30
2023-11-15T22:43:13.028Z,27.30
2023-11-15T22:45:42.476Z,27.30
2023-11-15T22:48:11.273Z,27.30
2023-11-15T22:50:42.342Z,27.30
2023-11-15T22:53:11.904Z,27.30
2023-11-15T22:55:40.518Z,27.30
2023-11-15T22:58:08.864Z,27.30
2023-11-15T23:00:37.533Z,27.30
2023-11-15T23:03:10.853Z,27.30
2023-11-15T23:05:41.235Z,27.30
2023-11-15T23:08:11.271Z,27.30
2023-11-15T23:10:40.063Z,27.30
2023-11-15T23:13:08.608Z,27.30
2023-11-15T23:15:37.154Z,27.30
2023-11-15T23:18:06.273Z,27.20
2023-11-15T23:20:35.252Z,27.30
2023-11-15T23:23:04.669Z,27.30
2023-11-15T23:25:33.004Z,27.30
2023-11-15T23:28:01.618Z,27.30
2023-11-15T23:30:30.093Z,27.20
2023-11-15T23:32:58.523Z,27.20
2023-11-15T23:35:27.022Z,27.20
2023-11-15T23:37:55.524Z,27.20
2023-11-15T23:40:23.939Z,27.20
2023-11-15T23:42:54.191Z,27.20
2023-11-15T23:45:23.475Z,27.20
2023-11-15T23:47:53.055Z,27.20
2023-11-15T23:50:21.777Z,27.20
2023-11-15T23:52:50.727Z,27.20
2023-11-15T23:55:22.472Z,27.20
2023-11-15T23:57:51.336Z,27.20
